sensor_id;sensor_type;location;lat;lon;timestamp;P1;durP1;ratioP1;P2;durP2;ratioP2
38637;SDS011;24401;53.034;-3.030;2024-02-21T00:02:13;1.50;;;1.40;;
38637;SDS011;24401;53.034;-3.030;2024-02-21T00:04:43;9.00;;;1.03;;
38637;SDS011;24401;53.034;-3.030;2024-02-21T00:07:14;0.80;;;0.50;;
38637;SDS011;24401;53.034;-3.030;2024-02-21T00:09:44;1.40;;;0.60;;
38637;SDS011;24401;53.034;-3.030;2024-02-21T00:12:14;0.43;;;0.43;;
38637;SDS011;24401;53.034;-3.030;2024-02-21T00:14:44;0.30;;;0.30;;
38637;SDS011;24401;53.034;-3.030;2024-02-21T00:17:15;0.30;;;0.30;;
38637;SDS011;24401;53.034;-3.030;2024-02-21T00:19:45;1.17;;;0.30;;
38637;SDS011;24401;53.034;-3.030;2024-02-21T00:22:15;0.20;;;0.20;;
38637;SDS011;24401;53.034;-3.030;2024-02-21T00:24:46;0.20;;;0.20;;
38637;SDS011;24401;53.034;-3.030;2024-02-21T00:27:16;0.10;;;0.10;;
38637;SDS011;24401;53.034;-3.030;2024-02-21T00:29:46;0.20;;;0.20;;
38637;SDS011;24401;53.034;-3.030;2024-02-21T00:32:16;0.67;;;0.30;;
38637;SDS011;24401;53.034;-3.030;2024-02-21T00:34:47;0.30;;;0.30;;
38637;SDS011;24401;53.034;-3.030;2024-02-21T00:37:17;0.23;;;0.23;;
38637;SDS011;24401;53.034;-3.030;2024-02-21T00:39:47;0.17;;;0.17;;
38637;SDS011;24401;53.034;-3.030;2024-02-21T00:42:17;0.30;;;0.20;;
38637;SDS011;24401;53.034;-3.030;2024-02-21T00:44:48;0.10;;;0.10;;
38637;SDS011;24401;53.034;-3.030;2024-02-21T00:47:18;0.20;;;0.20;;
38637;SDS011;24401;53.034;-3.030;2024-02-21T00:49:48;0.20;;;0.20;;
38637;SDS011;24401;53.034;-3.030;2024-02-21T00:52:18;2.07;;;0.33;;
38637;SDS011;24401;53.034;-3.030;2024-02-21T00:54:49;0.20;;;0.20;;
38637;SDS011;24401;53.034;-3.030;2024-02-21T00:57:19;0.30;;;0.30;;
38637;SDS011;24401;53.034;-3.030;2024-02-21T00:59:49;0.20;;;0.20;;
38637;SDS011;24401;53.034;-3.030;2024-02-21T01:02:19;0.20;;;0.20;;
38637;SDS011;24401;53.034;-3.030;2024-02-21T01:04:50;0.33;;;0.30;;
38637;SDS011;24401;53.034;-3.030;2024-02-21T01:07:20;2.20;;;0.23;;
38637;SDS011;24401;53.034;-3.030;2024-02-21T01:09:50;0.20;;;0.20;;
38637;SDS011;24401;53.034;-3.030;2024-02-21T01:12:23;0.30;;;0.30;;
38637;SDS011;24401;53.034;-3.030;2024-02-21T01:14:53;0.50;;;0.30;;
38637;SDS011;24401;53.034;-3.030;2024-02-21T01:17:23;1.23;;;0.23;;
38637;SDS011;24401;53.034;-3.030;2024-02-21T01:19:54;0.30;;;0.30;;
38637;SDS011;24401;53.034;-3.030;2024-02-21T01:22:24;0.20;;;0.20;;
38637;SDS011;24401;53.034;-3.030;2024-02-21T01:24:54;0.30;;;0.23;;
38637;SDS011;24401;53.034;-3.030;2024-02-21T01:27:24;0.50;;;0.20;;
38637;SDS011;24401;53.034;-3.030;2024-02-21T01:29:54;0.23;;;0.23;;
38637;SDS011;24401;53.034;-3.030;2024-02-21T01:32:25;0.20;;;0.20;;
38637;SDS011;24401;53.034;-3.030;2024-02-21T01:34:55;0.57;;;0.27;;
38637;SDS011;24401;53.034;-3.030;2024-02-21T01:37:25;0.30;;;0.30;;
38637;SDS011;24401;53.034;-3.030;2024-02-21T01:39:55;0.53;;;0.30;;
38637;SDS011;24401;53.034;-3.030;2024-02-21T01:42:26;0.10;;;0.10;;
38637;SDS011;24401;53.034;-3.030;2024-02-21T01:44:56;0.10;;;0.10;;
38637;SDS011;24401;53.034;-3.030;2024-02-21T01:47:26;0.20;;;0.20;;
38637;SDS011;24401;53.034;-3.030;2024-02-21T01:49:57;0.17;;;0.17;;
38637;SDS011;24401;53.034;-3.030;2024-02-21T01:52:28;0.10;;;0.10;;
38637;SDS011;24401;53.034;-3.030;2024-02-21T01:54:58;0.13;;;0.13;;
38637;SDS011;24401;53.034;-3.030;2024-02-21T01:57:28;0.10;;;0.10;;
38637;SDS011;24401;53.034;-3.030;2024-02-21T01:59:59;0.20;;;0.20;;
38637;SDS011;24401;53.034;-3.030;2024-02-21T02:02:29;0.10;;;0.10;;
38637;SDS011;24401;53.034;-3.030;2024-02-21T02:04:59;0.10;;;0.10;;
38637;SDS011;24401;53.034;-3.030;2024-02-21T02:07:30;0.20;;;0.20;;
38637;SDS011;24401;53.034;-3.030;2024-02-21T02:10:01;0.13;;;0.10;;
38637;SDS011;24401;53.034;-3.030;2024-02-21T02:12:31;0.93;;;0.33;;
38637;SDS011;24401;53.034;-3.030;2024-02-21T02:15:02;0.73;;;0.10;;
38637;SDS011;24401;53.034;-3.030;2024-02-21T02:17:36;0.13;;;0.13;;
38637;SDS011;24401;53.034;-3.030;2024-02-21T02:20:06;0.53;;;0.13;;
38637;SDS011;24401;53.034;-3.030;2024-02-21T02:22:36;0.10;;;0.10;;
38637;SDS011;24401;53.034;-3.030;2024-02-21T02:25:07;0.40;;;0.40;;
38637;SDS011;24401;53.034;-3.030;2024-02-21T02:27:44;0.30;;;0.30;;
38637;SDS011;24401;53.034;-3.030;2024-02-21T02:30:15;0.40;;;0.40;;
38637;SDS011;24401;53.034;-3.030;2024-02-21T02:32:45;0.40;;;0.40;;
38637;SDS011;24401;53.034;-3.030;2024-02-21T02:35:16;0.40;;;0.40;;
38637;SDS011;24401;53.034;-3.030;2024-02-21T02:37:49;0.57;;;0.57;;
38637;SDS011;24401;53.034;-3.030;2024-02-21T02:40:19;0.60;;;0.60;;
38637;SDS011;24401;53.034;-3.030;2024-02-21T02:42:50;1.30;;;0.50;;
38637;SDS011;24401;53.034;-3.030;2024-02-21T02:45:21;1.60;;;0.53;;
38637;SDS011;24401;53.034;-3.030;2024-02-21T02:47:56;0.60;;;0.60;;
38637;SDS011;24401;53.034;-3.030;2024-02-21T02:50:29;1.55;;;0.55;;
38637;SDS011;24401;53.034;-3.030;2024-02-21T02:52:59;1.53;;;1.43;;
38637;SDS011;24401;53.034;-3.030;2024-02-21T02:55:29;0.83;;;0.83;;
38637;SDS011;24401;53.034;-3.030;2024-02-21T02:58:00;0.80;;;0.80;;
38637;SDS011;24401;53.034;-3.030;2024-02-21T03:00:30;0.70;;;0.70;;
38637;SDS011;24401;53.034;-3.030;2024-02-21T03:03:00;1.20;;;1.20;;
38637;SDS011;24401;53.034;-3.030;2024-02-21T03:05:31;0.90;;;0.90;;
38637;SDS011;24401;53.034;-3.030;2024-02-21T03:08:01;0.87;;;0.87;;
38637;SDS011;24401;53.034;-3.030;2024-02-21T03:10:31;0.80;;;0.80;;
38637;SDS011;24401;53.034;-3.030;2024-02-21T03:13:01;0.63;;;0.57;;
38637;SDS011;24401;53.034;-3.030;2024-02-21T03:15:32;1.17;;;1.07;;
38637;SDS011;24401;53.034;-3.030;2024-02-21T03:18:02;0.93;;;0.70;;
38637;SDS011;24401;53.034;-3.030;2024-02-21T03:20:32;0.70;;;0.70;;
38637;SDS011;24401;53.034;-3.030;2024-02-21T03:23:02;0.50;;;0.50;;
38637;SDS011;24401;53.034;-3.030;2024-02-21T03:25:33;0.43;;;0.40;;
38637;SDS011;24401;53.034;-3.030;2024-02-21T03:28:03;0.43;;;0.43;;
38637;SDS011;24401;53.034;-3.030;2024-02-21T03:30:33;0.60;;;0.60;;
38637;SDS011;24401;53.034;-3.030;2024-02-21T03:33:04;0.50;;;0.50;;
38637;SDS011;24401;53.034;-3.030;2024-02-21T03:35:34;0.50;;;0.50;;
38637;SDS011;24401;53.034;-3.030;2024-02-21T03:38:05;0.50;;;0.50;;
38637;SDS011;24401;53.034;-3.030;2024-02-21T03:40:35;0.73;;;0.60;;
38637;SDS011;24401;53.034;-3.030;2024-02-21T03:43:05;0.60;;;0.60;;
38637;SDS011;24401;53.034;-3.030;2024-02-21T03:45:35;0.60;;;0.60;;
38637;SDS011;24401;53.034;-3.030;2024-02-21T03:48:06;0.73;;;0.60;;
38637;SDS011;24401;53.034;-3.030;2024-02-21T03:50:36;3.63;;;0.70;;
38637;SDS011;24401;53.034;-3.030;2024-02-21T03:53:06;0.60;;;0.53;;
38637;SDS011;24401;53.034;-3.030;2024-02-21T03:55:37;0.60;;;0.60;;
38637;SDS011;24401;53.034;-3.030;2024-02-21T03:58:07;0.60;;;0.60;;
38637;SDS011;24401;53.034;-3.030;2024-02-21T04:00:37;0.60;;;0.60;;
38637;SDS011;24401;53.034;-3.030;2024-02-21T04:03:07;1.63;;;0.67;;
38637;SDS011;24401;53.034;-3.030;2024-02-21T04:05:37;1.00;;;0.50;;
38637;SDS011;24401;53.034;-3.030;2024-02-21T04:08:08;0.60;;;0.60;;
38637;SDS011;24401;53.034;-3.030;2024-02-21T04:10:38;3.00;;;0.60;;
38637;SDS011;24401;53.034;-3.030;2024-02-21T04:13:08;0.60;;;0.60;;
38637;SDS011;24401;53.034;-3.030;2024-02-21T04:15:39;6.50;;;0.47;;
38637;SDS011;24401;53.034;-3.030;2024-02-21T04:18:09;0.40;;;0.40;;
38637;SDS011;24401;53.034;-3.030;2024-02-21T04:20:39;0.50;;;0.50;;
38637;SDS011;24401;53.034;-3.030;2024-02-21T04:23:09;0.43;;;0.43;;
38637;SDS011;24401;53.034;-3.030;2024-02-21T04:25:40;0.70;;;0.40;;
38637;SDS011;24401;53.034;-3.030;2024-02-21T04:28:10;0.33;;;0.33;;
38637;SDS011;24401;53.034;-3.030;2024-02-21T04:30:40;0.30;;;0.30;;
38637;SDS011;24401;53.034;-3.030;2024-02-21T04:33:10;0.30;;;0.30;;
38637;SDS011;24401;53.034;-3.030;2024-02-21T04:35:40;0.20;;;0.20;;
38637;SDS011;24401;53.034;-3.030;2024-02-21T04:38:11;3.40;;;0.27;;
38637;SDS011;24401;53.034;-3.030;2024-02-21T04:40:41;0.20;;;0.20;;
38637;SDS011;24401;53.034;-3.030;2024-02-21T04:43:11;0.20;;;0.20;;
38637;SDS011;24401;53.034;-3.030;2024-02-21T04:45:41;0.30;;;0.30;;
38637;SDS011;24401;53.034;-3.030;2024-02-21T04:48:11;0.50;;;0.30;;
38637;SDS011;24401;53.034;-3.030;2024-02-21T04:50:42;0.20;;;0.20;;
38637;SDS011;24401;53.034;-3.030;2024-02-21T04:53:12;0.13;;;0.13;;
38637;SDS011;24401;53.034;-3.030;2024-02-21T04:55:42;0.20;;;0.20;;
38637;SDS011;24401;53.034;-3.030;2024-02-21T04:58:13;0.43;;;0.37;;
38637;SDS011;24401;53.034;-3.030;2024-02-21T05:00:43;0.45;;;0.30;;
38637;SDS011;24401;53.034;-3.030;2024-02-21T05:03:13;0.20;;;0.20;;
38637;SDS011;24401;53.034;-3.030;2024-02-21T05:05:43;0.30;;;0.30;;
38637;SDS011;24401;53.034;-3.030;2024-02-21T05:08:14;1.60;;;0.30;;
38637;SDS011;24401;53.034;-3.030;2024-02-21T05:10:44;0.30;;;0.30;;
38637;SDS011;24401;53.034;-3.030;2024-02-21T05:13:14;0.53;;;0.30;;
38637;SDS011;24401;53.034;-3.030;2024-02-21T05:15:45;0.30;;;0.30;;
38637;SDS011;24401;53.034;-3.030;2024-02-21T05:18:15;0.17;;;0.10;;
38637;SDS011;24401;53.034;-3.030;2024-02-21T05:20:46;0.30;;;0.20;;
38637;SDS011;24401;53.034;-3.030;2024-02-21T05:23:16;0.20;;;0.20;;
38637;SDS011;24401;53.034;-3.030;2024-02-21T05:25:46;0.50;;;0.20;;
38637;SDS011;24401;53.034;-3.030;2024-02-21T05:28:16;0.20;;;0.20;;
38637;SDS011;24401;53.034;-3.030;2024-02-21T05:30:46;0.10;;;0.10;;
38637;SDS011;24401;53.034;-3.030;2024-02-21T05:33:17;0.20;;;0.20;;
38637;SDS011;24401;53.034;-3.030;2024-02-21T05:35:51;0.10;;;0.10;;
38637;SDS011;24401;53.034;-3.030;2024-02-21T05:38:21;0.20;;;0.20;;
38637;SDS011;24401;53.034;-3.030;2024-02-21T05:40:51;0.20;;;0.10;;
38637;SDS011;24401;53.034;-3.030;2024-02-21T05:43:22;0.10;;;0.10;;
38637;SDS011;24401;53.034;-3.030;2024-02-21T05:45:52;0.60;;;0.43;;
38637;SDS011;24401;53.034;-3.030;2024-02-21T05:48:22;0.10;;;0.10;;
38637;SDS011;24401;53.034;-3.030;2024-02-21T05:50:52;0.10;;;0.10;;
38637;SDS011;24401;53.034;-3.030;2024-02-21T05:53:23;0.27;;;0.10;;
38637;SDS011;24401;53.034;-3.030;2024-02-21T05:55:53;0.03;;;0.03;;
38637;SDS011;24401;53.034;-3.030;2024-02-21T05:58:23;0.10;;;0.10;;
38637;SDS011;24401;53.034;-3.030;2024-02-21T06:00:53;0.37;;;0.30;;
38637;SDS011;24401;53.034;-3.030;2024-02-21T06:03:24;0.10;;;0.10;;
38637;SDS011;24401;53.034;-3.030;2024-02-21T06:05:54;0.10;;;0.10;;
38637;SDS011;24401;53.034;-3.030;2024-02-21T06:08:24;0.43;;;0.10;;
38637;SDS011;24401;53.034;-3.030;2024-02-21T06:10:55;0.67;;;0.30;;
38637;SDS011;24401;53.034;-3.030;2024-02-21T06:13:25;0.77;;;0.10;;
38637;SDS011;24401;53.034;-3.030;2024-02-21T06:15:55;0.20;;;0.20;;
38637;SDS011;24401;53.034;-3.030;2024-02-21T06:18:25;0.93;;;0.20;;
38637;SDS011;24401;53.034;-3.030;2024-02-21T06:20:56;0.00;;;0.00;;
38637;SDS011;24401;53.034;-3.030;2024-02-21T06:23:26;0.20;;;0.10;;
38637;SDS011;24401;53.034;-3.030;2024-02-21T06:25:56;0.30;;;0.20;;
38637;SDS011;24401;53.034;-3.030;2024-02-21T06:28:26;0.10;;;0.10;;
38637;SDS011;24401;53.034;-3.030;2024-02-21T06:30:56;0.23;;;0.10;;
38637;SDS011;24401;53.034;-3.030;2024-02-21T06:33:27;0.10;;;0.10;;
38637;SDS011;24401;53.034;-3.030;2024-02-21T06:35:57;0.30;;;0.20;;
38637;SDS011;24401;53.034;-3.030;2024-02-21T06:38:27;0.87;;;0.20;;
38637;SDS011;24401;53.034;-3.030;2024-02-21T06:40:57;0.30;;;0.10;;
38637;SDS011;24401;53.034;-3.030;2024-02-21T06:43:30;0.80;;;0.10;;
38637;SDS011;24401;53.034;-3.030;2024-02-21T06:46:00;0.13;;;0.13;;
38637;SDS011;24401;53.034;-3.030;2024-02-21T06:48:30;0.10;;;0.10;;
38637;SDS011;24401;53.034;-3.030;2024-02-21T06:51:01;0.20;;;0.20;;
38637;SDS011;24401;53.034;-3.030;2024-02-21T06:53:31;0.33;;;0.30;;
38637;SDS011;24401;53.034;-3.030;2024-02-21T06:56:01;0.73;;;0.20;;
38637;SDS011;24401;53.034;-3.030;2024-02-21T06:58:31;0.37;;;0.30;;
38637;SDS011;24401;53.034;-3.030;2024-02-21T07:01:02;0.50;;;0.20;;
38637;SDS011;24401;53.034;-3.030;2024-02-21T07:03:32;0.33;;;0.20;;
38637;SDS011;24401;53.034;-3.030;2024-02-21T07:06:02;0.10;;;0.10;;
38637;SDS011;24401;53.034;-3.030;2024-02-21T07:08:32;1.90;;;0.13;;
38637;SDS011;24401;53.034;-3.030;2024-02-21T07:11:03;0.10;;;0.10;;
38637;SDS011;24401;53.034;-3.030;2024-02-21T07:13:33;0.27;;;0.20;;
38637;SDS011;24401;53.034;-3.030;2024-02-21T07:16:03;0.20;;;0.20;;
38637;SDS011;24401;53.034;-3.030;2024-02-21T07:18:34;0.53;;;0.10;;
38637;SDS011;24401;53.034;-3.030;2024-02-21T07:21:04;0.20;;;0.17;;
38637;SDS011;24401;53.034;-3.030;2024-02-21T07:23:34;0.37;;;0.27;;
38637;SDS011;24401;53.034;-3.030;2024-02-21T07:26:05;0.10;;;0.10;;
38637;SDS011;24401;53.034;-3.030;2024-02-21T07:28:35;4.03;;;0.20;;
38637;SDS011;24401;53.034;-3.030;2024-02-21T07:31:05;1.60;;;0.30;;
38637;SDS011;24401;53.034;-3.030;2024-02-21T07:33:35;0.63;;;0.30;;
38637;SDS011;24401;53.034;-3.030;2024-02-21T07:36:07;0.10;;;0.10;;
38637;SDS011;24401;53.034;-3.030;2024-02-21T07:38:37;0.20;;;0.20;;
38637;SDS011;24401;53.034;-3.030;2024-02-21T07:41:07;0.20;;;0.20;;
38637;SDS011;24401;53.034;-3.030;2024-02-21T07:43:38;0.20;;;0.20;;
38637;SDS011;24401;53.034;-3.030;2024-02-21T07:46:08;0.50;;;0.27;;
38637;SDS011;24401;53.034;-3.030;2024-02-21T07:48:38;0.20;;;0.20;;
38637;SDS011;24401;53.034;-3.030;2024-02-21T07:51:08;0.20;;;0.20;;
38637;SDS011;24401;53.034;-3.030;2024-02-21T07:53:39;0.30;;;0.30;;
38637;SDS011;24401;53.034;-3.030;2024-02-21T07:56:15;0.93;;;0.30;;
38637;SDS011;24401;53.034;-3.030;2024-02-21T07:58:45;0.23;;;0.23;;
38637;SDS011;24401;53.034;-3.030;2024-02-21T08:01:19;0.20;;;0.20;;
38637;SDS011;24401;53.034;-3.030;2024-02-21T08:03:52;0.30;;;0.20;;
38637;SDS011;24401;53.034;-3.030;2024-02-21T08:06:22;0.60;;;0.23;;
38637;SDS011;24401;53.034;-3.030;2024-02-21T08:08:52;0.23;;;0.23;;
38637;SDS011;24401;53.034;-3.030;2024-02-21T08:11:23;0.20;;;0.20;;
38637;SDS011;24401;53.034;-3.030;2024-02-21T08:13:53;0.20;;;0.20;;
38637;SDS011;24401;53.034;-3.030;2024-02-21T08:16:23;1.30;;;0.30;;
38637;SDS011;24401;53.034;-3.030;2024-02-21T08:18:53;0.10;;;0.10;;
38637;SDS011;24401;53.034;-3.030;2024-02-21T08:21:24;0.27;;;0.23;;
38637;SDS011;24401;53.034;-3.030;2024-02-21T08:23:54;0.87;;;0.20;;
38637;SDS011;24401;53.034;-3.030;2024-02-21T08:26:24;0.10;;;0.10;;
38637;SDS011;24401;53.034;-3.030;2024-02-21T08:28:58;0.20;;;0.20;;
38637;SDS011;24401;53.034;-3.030;2024-02-21T08:31:31;0.32;;;0.20;;
38637;SDS011;24401;53.034;-3.030;2024-02-21T08:34:01;8.30;;;0.30;;
38637;SDS011;24401;53.034;-3.030;2024-02-21T08:36:35;0.88;;;0.10;;
38637;SDS011;24401;53.034;-3.030;2024-02-21T08:39:05;0.70;;;0.30;;
38637;SDS011;24401;53.034;-3.030;2024-02-21T08:41:35;0.10;;;0.10;;
38637;SDS011;24401;53.034;-3.030;2024-02-21T08:44:06;8.50;;;0.27;;
38637;SDS011;24401;53.034;-3.030;2024-02-21T08:46:37;0.10;;;0.10;;
38637;SDS011;24401;53.034;-3.030;2024-02-21T08:49:10;0.43;;;0.20;;
38637;SDS011;24401;53.034;-3.030;2024-02-21T08:51:40;0.00;;;0.00;;
38637;SDS011;24401;53.034;-3.030;2024-02-21T08:54:10;2.57;;;0.20;;
38637;SDS011;24401;53.034;-3.030;2024-02-21T08:56:41;0.10;;;0.10;;
38637;SDS011;24401;53.034;-3.030;2024-02-21T08:59:11;0.10;;;0.10;;
38637;SDS011;24401;53.034;-3.030;2024-02-21T09:01:41;0.10;;;0.10;;
38637;SDS011;24401;53.034;-3.030;2024-02-21T09:04:12;0.00;;;0.00;;
38637;SDS011;24401;53.034;-3.030;2024-02-21T09:06:42;1.30;;;0.10;;
38637;SDS011;24401;53.034;-3.030;2024-02-21T09:09:12;0.20;;;0.10;;
38637;SDS011;24401;53.034;-3.030;2024-02-21T09:11:42;0.10;;;0.10;;
38637;SDS011;24401;53.034;-3.030;2024-02-21T09:14:13;2.47;;;0.20;;
38637;SDS011;24401;53.034;-3.030;2024-02-21T09:16:43;2.10;;;0.10;;
38637;SDS011;24401;53.034;-3.030;2024-02-21T09:19:14;0.47;;;0.10;;
38637;SDS011;24401;53.034;-3.030;2024-02-21T09:21:44;0.10;;;0.10;;
38637;SDS011;24401;53.034;-3.030;2024-02-21T09:24:14;0.10;;;0.10;;
38637;SDS011;24401;53.034;-3.030;2024-02-21T09:26:44;0.30;;;0.30;;
38637;SDS011;24401;53.034;-3.030;2024-02-21T09:29:15;0.10;;;0.10;;
38637;SDS011;24401;53.034;-3.030;2024-02-21T09:31:46;0.10;;;0.10;;
38637;SDS011;24401;53.034;-3.030;2024-02-21T09:34:17;0.70;;;0.10;;
38637;SDS011;24401;53.034;-3.030;2024-02-21T09:36:48;0.10;;;0.10;;
38637;SDS011;24401;53.034;-3.030;2024-02-21T09:39:18;0.00;;;0.00;;
38637;SDS011;24401;53.034;-3.030;2024-02-21T09:41:59;0.10;;;0.10;;
38637;SDS011;24401;53.034;-3.030;2024-02-21T09:44:31;0.00;;;0.00;;
38637;SDS011;24401;53.034;-3.030;2024-02-21T09:47:03;0.13;;;0.10;;
38637;SDS011;24401;53.034;-3.030;2024-02-21T09:49:36;0.15;;;0.13;;
38637;SDS011;24401;53.034;-3.030;2024-02-21T09:52:07;0.03;;;0.03;;
38637;SDS011;24401;53.034;-3.030;2024-02-21T09:54:38;0.00;;;0.00;;
38637;SDS011;24401;53.034;-3.030;2024-02-21T09:57:10;0.10;;;0.10;;
38637;SDS011;24401;53.034;-3.030;2024-02-21T09:59:41;0.10;;;0.10;;
38637;SDS011;24401;53.034;-3.030;2024-02-21T10:02:11;0.13;;;0.10;;
38637;SDS011;24401;53.034;-3.030;2024-02-21T10:04:42;0.10;;;0.10;;
38637;SDS011;24401;53.034;-3.030;2024-02-21T10:07:13;0.10;;;0.10;;
38637;SDS011;24401;53.034;-3.030;2024-02-21T10:09:43;0.43;;;0.20;;
38637;SDS011;24401;53.034;-3.030;2024-02-21T10:14:49;0.10;;;0.10;;
38637;SDS011;24401;53.034;-3.030;2024-02-21T10:17:29;0.10;;;0.10;;
38637;SDS011;24401;53.034;-3.030;2024-02-21T10:20:11;0.20;;;0.20;;
38637;SDS011;24401;53.034;-3.030;2024-02-21T10:25:12;0.20;;;0.17;;
38637;SDS011;24401;53.034;-3.030;2024-02-21T10:27:42;0.10;;;0.10;;
38637;SDS011;24401;53.034;-3.030;2024-02-21T10:30:13;0.37;;;0.13;;
38637;SDS011;24401;53.034;-3.030;2024-02-21T10:32:53;0.43;;;0.10;;
38637;SDS011;24401;53.034;-3.030;2024-02-21T10:37:58;0.10;;;0.10;;
38637;SDS011;24401;53.034;-3.030;2024-02-21T10:40:29;0.10;;;0.10;;
38637;SDS011;24401;53.034;-3.030;2024-02-21T10:43:01;0.13;;;0.13;;
38637;SDS011;24401;53.034;-3.030;2024-02-21T10:45:34;0.10;;;0.10;;
38637;SDS011;24401;53.034;-3.030;2024-02-21T10:48:11;0.00;;;0.00;;
38637;SDS011;24401;53.034;-3.030;2024-02-21T10:50:53;0.50;;;0.10;;
38637;SDS011;24401;53.034;-3.030;2024-02-21T10:56:41;0.05;;;0.05;;
38637;SDS011;24401;53.034;-3.030;2024-02-21T10:59:07;0.10;;;0.10;;
38637;SDS011;24401;53.034;-3.030;2024-02-21T11:01:38;0.10;;;0.10;;
38637;SDS011;24401;53.034;-3.030;2024-02-21T11:04:09;0.13;;;0.13;;
38637;SDS011;24401;53.034;-3.030;2024-02-21T11:06:41;0.25;;;0.10;;
38637;SDS011;24401;53.034;-3.030;2024-02-21T11:09:11;8.80;;;0.30;;
38637;SDS011;24401;53.034;-3.030;2024-02-21T11:11:43;0.20;;;0.20;;
38637;SDS011;24401;53.034;-3.030;2024-02-21T11:16:47;0.55;;;0.15;;
38637;SDS011;24401;53.034;-3.030;2024-02-21T11:19:21;1.00;;;0.10;;
38637;SDS011;24401;53.034;-3.030;2024-02-21T11:21:52;0.20;;;0.20;;
38637;SDS011;24401;53.034;-3.030;2024-02-21T11:24:30;0.20;;;0.20;;
38637;SDS011;24401;53.034;-3.030;2024-02-21T11:27:18;0.75;;;0.50;;
38637;SDS011;24401;53.034;-3.030;2024-02-21T11:29:58;0.10;;;0.10;;
38637;SDS011;24401;53.034;-3.030;2024-02-21T11:32:28;0.10;;;0.10;;
38637;SDS011;24401;53.034;-3.030;2024-02-21T11:35:01;0.00;;;0.00;;
38637;SDS011;24401;53.034;-3.030;2024-02-21T11:37:35;0.57;;;0.10;;
38637;SDS011;24401;53.034;-3.030;2024-02-21T11:40:09;3.40;;;0.20;;
38637;SDS011;24401;53.034;-3.030;2024-02-21T11:42:40;0.10;;;0.10;;
38637;SDS011;24401;53.034;-3.030;2024-02-21T11:45:10;0.10;;;0.10;;
38637;SDS011;24401;53.034;-3.030;2024-02-21T11:47:42;0.10;;;0.10;;
38637;SDS011;24401;53.034;-3.030;2024-02-21T11:50:12;0.10;;;0.10;;
38637;SDS011;24401;53.034;-3.030;2024-02-21T11:52:43;0.10;;;0.10;;
38637;SDS011;24401;53.034;-3.030;2024-02-21T11:55:13;0.10;;;0.10;;
38637;SDS011;24401;53.034;-3.030;2024-02-21T11:57:43;0.10;;;0.00;;
38637;SDS011;24401;53.034;-3.030;2024-02-21T12:00:16;0.00;;;0.00;;
38637;SDS011;24401;53.034;-3.030;2024-02-21T12:02:46;0.10;;;0.10;;
38637;SDS011;24401;53.034;-3.030;2024-02-21T12:05:18;0.10;;;0.10;;
38637;SDS011;24401;53.034;-3.030;2024-02-21T12:07:48;0.10;;;0.10;;
38637;SDS011;24401;53.034;-3.030;2024-02-21T12:10:19;0.27;;;0.10;;
38637;SDS011;24401;53.034;-3.030;2024-02-21T12:12:50;2.00;;;0.20;;
38637;SDS011;24401;53.034;-3.030;2024-02-21T12:17:52;0.20;;;0.20;;
38637;SDS011;24401;53.034;-3.030;2024-02-21T12:20:23;0.43;;;0.20;;
38637;SDS011;24401;53.034;-3.030;2024-02-21T12:22:53;0.30;;;0.20;;
38637;SDS011;24401;53.034;-3.030;2024-02-21T12:25:24;0.15;;;0.15;;
38637;SDS011;24401;53.034;-3.030;2024-02-21T12:27:56;0.20;;;0.20;;
38637;SDS011;24401;53.034;-3.030;2024-02-21T12:30:28;0.03;;;0.03;;
38637;SDS011;24401;53.034;-3.030;2024-02-21T12:35:31;0.22;;;0.10;;
38637;SDS011;24401;53.034;-3.030;2024-02-21T12:38:03;1.65;;;0.10;;
38637;SDS011;24401;53.034;-3.030;2024-02-21T12:40:33;0.30;;;0.30;;
38637;SDS011;24401;53.034;-3.030;2024-02-21T12:43:03;0.00;;;0.00;;
38637;SDS011;24401;53.034;-3.030;2024-02-21T12:45:34;0.10;;;0.10;;
38637;SDS011;24401;53.034;-3.030;2024-02-21T12:48:04;0.20;;;0.20;;
38637;SDS011;24401;53.034;-3.030;2024-02-21T12:50:35;0.20;;;0.20;;
38637;SDS011;24401;53.034;-3.030;2024-02-21T12:53:05;0.10;;;0.10;;
38637;SDS011;24401;53.034;-3.030;2024-02-21T12:55:36;0.13;;;0.10;;
38637;SDS011;24401;53.034;-3.030;2024-02-21T12:58:07;1.48;;;0.08;;
38637;SDS011;24401;53.034;-3.030;2024-02-21T13:00:39;0.05;;;0.05;;
38637;SDS011;24401;53.034;-3.030;2024-02-21T13:03:09;0.37;;;0.00;;
38637;SDS011;24401;53.034;-3.030;2024-02-21T13:05:39;0.00;;;0.00;;
38637;SDS011;24401;53.034;-3.030;2024-02-21T13:08:10;0.20;;;0.10;;
38637;SDS011;24401;53.034;-3.030;2024-02-21T13:13:11;0.28;;;0.13;;
38637;SDS011;24401;53.034;-3.030;2024-02-21T13:15:42;0.57;;;0.00;;
38637;SDS011;24401;53.034;-3.030;2024-02-21T13:18:13;0.03;;;0.03;;
38637;SDS011;24401;53.034;-3.030;2024-02-21T13:20:43;0.10;;;0.10;;
38637;SDS011;24401;53.034;-3.030;2024-02-21T13:23:13;0.57;;;0.13;;
38637;SDS011;24401;53.034;-3.030;2024-02-21T13:25:44;0.20;;;0.10;;
38637;SDS011;24401;53.034;-3.030;2024-02-21T13:28:15;0.45;;;0.10;;
38637;SDS011;24401;53.034;-3.030;2024-02-21T13:30:46;0.70;;;0.20;;
38637;SDS011;24401;53.034;-3.030;2024-02-21T13:33:16;0.53;;;0.20;;
38637;SDS011;24401;53.034;-3.030;2024-02-21T13:35:47;0.00;;;0.00;;
38637;SDS011;24401;53.034;-3.030;2024-02-21T13:38:17;0.40;;;0.20;;
38637;SDS011;24401;53.034;-3.030;2024-02-21T13:43:20;1.17;;;0.20;;
38637;SDS011;24401;53.034;-3.030;2024-02-21T13:45:58;0.20;;;0.10;;
38637;SDS011;24401;53.034;-3.030;2024-02-21T13:48:28;0.43;;;0.13;;
38637;SDS011;24401;53.034;-3.030;2024-02-21T13:51:00;0.15;;;0.10;;
38637;SDS011;24401;53.034;-3.030;2024-02-21T13:53:32;0.25;;;0.20;;
38637;SDS011;24401;53.034;-3.030;2024-02-21T13:56:02;0.13;;;0.10;;
38637;SDS011;24401;53.034;-3.030;2024-02-21T13:58:32;1.50;;;0.10;;
38637;SDS011;24401;53.034;-3.030;2024-02-21T14:01:02;0.17;;;0.17;;
38637;SDS011;24401;53.034;-3.030;2024-02-21T14:03:33;0.97;;;0.30;;
38637;SDS011;24401;53.034;-3.030;2024-02-21T14:06:03;0.10;;;0.10;;
38637;SDS011;24401;53.034;-3.030;2024-02-21T14:08:33;0.10;;;0.10;;
38637;SDS011;24401;53.034;-3.030;2024-02-21T14:11:04;0.10;;;0.10;;
38637;SDS011;24401;53.034;-3.030;2024-02-21T14:13:34;0.50;;;0.20;;
38637;SDS011;24401;53.034;-3.030;2024-02-21T14:16:08;0.30;;;0.20;;
38637;SDS011;24401;53.034;-3.030;2024-02-21T14:18:40;0.98;;;0.20;;
38637;SDS011;24401;53.034;-3.030;2024-02-21T14:21:13;0.22;;;0.20;;
38637;SDS011;24401;53.034;-3.030;2024-02-21T14:23:44;1.60;;;0.40;;
38637;SDS011;24401;53.034;-3.030;2024-02-21T14:26:14;2.17;;;0.30;;
38637;SDS011;24401;53.034;-3.030;2024-02-21T14:28:45;0.87;;;0.40;;
38637;SDS011;24401;53.034;-3.030;2024-02-21T14:31:15;0.97;;;0.20;;
38637;SDS011;24401;53.034;-3.030;2024-02-21T14:33:47;0.85;;;0.25;;
38637;SDS011;24401;53.034;-3.030;2024-02-21T14:36:17;1.47;;;0.30;;
38637;SDS011;24401;53.034;-3.030;2024-02-21T14:38:47;1.50;;;0.37;;
38637;SDS011;24401;53.034;-3.030;2024-02-21T14:41:18;1.20;;;0.33;;
38637;SDS011;24401;53.034;-3.030;2024-02-21T14:43:48;2.33;;;0.30;;
38637;SDS011;24401;53.034;-3.030;2024-02-21T14:46:18;1.13;;;0.43;;
38637;SDS011;24401;53.034;-3.030;2024-02-21T14:48:49;2.00;;;0.50;;
38637;SDS011;24401;53.034;-3.030;2024-02-21T14:51:19;2.20;;;0.40;;
38637;SDS011;24401;53.034;-3.030;2024-02-21T14:53:49;2.10;;;0.67;;
38637;SDS011;24401;53.034;-3.030;2024-02-21T14:56:19;1.43;;;0.70;;
38637;SDS011;24401;53.034;-3.030;2024-02-21T14:58:50;1.73;;;0.37;;
38637;SDS011;24401;53.034;-3.030;2024-02-21T15:01:20;2.63;;;0.93;;
38637;SDS011;24401;53.034;-3.030;2024-02-21T15:03:50;2.00;;;0.80;;
38637;SDS011;24401;53.034;-3.030;2024-02-21T15:06:21;2.53;;;0.70;;
38637;SDS011;24401;53.034;-3.030;2024-02-21T15:08:51;2.53;;;0.80;;
38637;SDS011;24401;53.034;-3.030;2024-02-21T15:11:22;8.17;;;1.00;;
38637;SDS011;24401;53.034;-3.030;2024-02-21T15:13:52;1.67;;;0.70;;
38637;SDS011;24401;53.034;-3.030;2024-02-21T15:16:22;1.10;;;0.67;;
38637;SDS011;24401;53.034;-3.030;2024-02-21T15:18:52;2.20;;;0.80;;